KDAL/DAL METAR and TAF weather

Enter ICAO airport designator
Station Type Date Time Source
KDAL METAR 2021/07/29 17:53 UTC NOAA

KDAL 291753Z 36005KT 10SM SCT045TCU BKN065 BKN250 34/22 A3005 RMK AO2 SLP169 TCU NE-SE-SW T03440217 10350 20267 58013


Station Type Date Time Source
KDAL Decoded METAR 2021/07/29 17:53 UTC NOAA

DALLAS LOVE FIELD, TX, United States (KDAL) 32-51N 096-51W 158M
Jul 29, 2021 - 01:53 PM EDT / 2021.07.29 1753 UTC
Wind: from the N (360 degrees) at 6 MPH (5 KT):0
Visibility: 10 mile(s):0
Sky conditions: mostly cloudy
Weather: Towering cumulus clouds observed
Temperature: 93.9 F (34.4 C)
Heat index: 100.8 F (38.2 C):1
Dew Point: 71.1 F (21.7 C)
Relative Humidity: 47%
Pressure (altimeter): 30.05 in. Hg (1017 hPa)
Pressure tendency: 0.04 inches (1.3 hPa) lower than three hours ago
ob: KDAL 291753Z 36005KT 10SM SCT045TCU BKN065 BKN250 34/22 A3005 RMK AO2 SLP169 TCU NE-SE-SW T03440217 10350 20267 58013
cycle: 18

Station Type Date Time Source
KDAL TAF 2021/07/29 12:22 UTC NOAA

TAF KDAL 291120Z 2912/3012 15006KT P6SM SCT250

Example: see airport list